Alpine Village, CA

11:18 AM PDT on October 02, 2014 (GMT -0700)
RAWS MARKLEEVILLE CA US | Change Station
CLOSE
Current Station
Personal Weather Station
Location: Markleeville, CA
Elevation: 5500 ft
Nearby Weather Stations

Elev 5500 ft 38.69 °N, 119.77 °W | Updated 30 minutes ago

Clear
Clear
58 °F
Feels Like 58 °F
N
3
Wind Variable Wind from NNE
Gusts 8.0 mph

Today
High -- | Low -- °F
--% Chance of Precip.
Yesterday
High -- | Low -- °F
Precip. -- in
6:56 AM 6:40 PM
First Quarter, 61% visible
Pressure 30.26 in
Visibility 10.0 miles
Clouds Clear
Dew Point 28 °F
Humidity 31%
Rainfall 0.00 in
Snow Depth 0 in , 0 in , 1 in
UV 6 out of 12
Pollen 4.50 out of 12
Air Quality Not available.
Flu Activity Not available.
METAR KTVL 021753Z AUTO 07004KT 10SM CLR 14/M01 A3034 RMK AO2 SLP245 T01441011 10150 21017 51006

More Conditions Fewer Conditions

Pressure 30.26 in
Visibility 10.0 miles
Clouds Clear
Dew Point 28 °F
Humidity 31%
Rainfall 0.00 in
Snow Depth 0 in , 0 in , 1 in
UV 6 out of 12
Pollen 4.50 out of 12
Air Quality Not available.
Flu Activity Not available.
METAR KTVL 021753Z AUTO 07004KT 10SM CLR 14/M01 A3034 RMK AO2 SLP245 T01441011 10150 21017 51006

More Conditions Fewer Conditions

10-Day Weather Forecast

Almanac

Astronomy

Oct. 02, 2014 Rise Set
Actual Time 6:56 AM PDT 6:40 PM PDT
Civil Twilight 6:29 AM PDT 7:06 PM PDT
Nautical Twilight 5:58 AM PDT 7:37 PM PDT
Astronomical Twilight 5:27 AM PDT 8:08 PM PDT
Moon 2:47 PM PDT 12:21 AM PDT
Length of Visible Light 12h 37m
Length of Day
11h 44m
Tomorrow will be 2m 29s shorter.
First Quarter, 61% of the Moon is Illuminated
Today
First Quarter
Oct 8
Full
Oct 15
Last Quarter
Oct 23
New
Oct 30
First Quarter

Today's Extremes

State Highs State Lows

Community

WunderPhotos

Upload Photos

1,758,316 photos uploaded!

WunderBlogs® & News

Nearby

Snow Depth

Station Depth Elevation
Summit Meadow 0 in 9122 ft
Sonora Pass 0 in 8800 ft
Rubicon #2 1 in 7500 ft
Leavitt Meadows 0 in 7200 ft
Horse Meadow 0 in 8631 ft

Earthquake Activity

City Distance Mag. Time & Date
East Foothills, California 137 miles 2.6 3:34 PM PDT
2014-09-30
Minimum magnitude displayed is 2.5.

Coastal Water Temperatures

Place Temperature
No Stations Reporting

Nearby Weather Stations